Time;durP1;ratioP1;P1;durP2;ratioP2;P2;SDS_P1;SDS_P2;PMS_P1;PMS_P2;Temp;Humidity;BMP_temperature;BMP_pressure;BME280_temperature;BME280_humidity;BME280_pressure;Samples;Min_cycle;Max_cycle;Signal;HPM_P1;HPM_P2
2022/06/19 00:00:10;;;;;;;1.63;1.00;;;28.40;47.10;;;;;;5072639;28;20106;-66
2022/06/19 00:02:37;;;;;;;2.22;1.17;;;28.40;47.10;;;;;;5069839;28;20091;-66
2022/06/19 00:05:03;;;;;;;2.00;1.10;;;28.40;47.10;;;;;;5073118;28;20024;-66
2022/06/19 00:07:29;;;;;;;1.83;1.10;;;28.30;47.00;;;;;;5073139;28;20028;-64
2022/06/19 00:09:55;;;;;;;2.67;1.20;;;28.30;47.00;;;;;;5069419;28;20034;-64
2022/06/19 00:12:21;;;;;;;2.38;1.17;;;28.30;47.00;;;;;;5070016;28;20024;-64
2022/06/19 00:14:47;;;;;;;2.10;1.10;;;28.30;47.50;;;;;;5068890;28;20066;-66
2022/06/19 00:17:14;;;;;;;2.55;1.10;;;28.30;47.00;;;;;;5070008;28;20028;-65
2022/06/19 00:19:40;;;;;;;2.22;1.02;;;28.30;47.00;;;;;;5071434;28;20063;-61
2022/06/19 00:22:06;;;;;;;2.33;1.15;;;28.30;47.00;;;;;;5068519;28;20032;-62
2022/06/19 00:24:32;;;;;;;2.50;1.35;;;28.30;47.10;;;;;;5065274;28;20403;-66
2022/06/19 00:26:57;;;;;;;2.17;1.10;;;28.30;47.00;;;;;;5070240;28;20028;-66
2022/06/19 00:29:23;;;;;;;1.85;1.20;;;28.30;47.10;;;;;;5067773;28;20463;-66
2022/06/19 00:31:49;;;;;;;2.38;1.10;;;28.20;47.00;;;;;;5069216;28;20615;-67
2022/06/19 00:34:15;;;;;;;2.00;1.10;;;28.20;47.00;;;;;;5071754;28;20039;-65
2022/06/19 00:36:40;;;;;;;2.25;1.20;;;28.20;47.00;;;;;;5070567;28;20039;-67
2022/06/19 00:39:06;;;;;;;2.47;1.20;;;28.20;47.10;;;;;;5069289;28;20050;-67
2022/06/19 00:41:35;;;;;;;2.05;1.10;;;28.20;47.10;;;;;;5070650;28;20025;-66
2022/06/19 00:44:06;;;;;;;2.17;1.10;;;28.20;47.10;;;;;;5068973;28;20025;-64
2022/06/19 00:46:57;;;;;;;2.17;1.30;;;28.20;47.10;;;;;;5069264;28;20063;-66
2022/06/19 00:49:41;;;;;;;2.00;1.13;;;28.20;47.10;;;;;;5066988;28;20357;-65
2022/06/19 00:52:14;;;;;;;2.22;1.20;;;28.10;47.10;;;;;;5070578;28;20980;-64
2022/06/19 00:54:50;;;;;;;2.60;1.10;;;28.10;47.10;;;;;;5065506;28;20151;-66
2022/06/19 00:57:17;;;;;;;1.77;1.10;;;28.20;47.20;;;;;;5067992;28;21242;-67
2022/06/19 00:59:48;;;;;;;2.42;1.10;;;28.10;47.10;;;;;;5068896;28;20504;-65
2022/06/19 01:02:14;;;;;;;2.38;1.10;;;28.10;47.10;;;;;;5069527;28;20043;-66
2022/06/19 01:04:48;;;;;;;3.53;1.00;;;28.10;47.20;;;;;;5073317;28;20070;-67
2022/06/19 01:07:15;;;;;;;1.75;1.10;;;28.10;47.20;;;;;;5068004;28;20032;-62
2022/06/19 01:09:40;;;;;;;2.05;1.10;;;28.10;47.10;;;;;;5067743;28;20035;-64
2022/06/19 01:12:08;;;;;;;2.08;1.17;;;28.10;47.10;;;;;;5069704;28;20387;-66
2022/06/19 01:14:35;;;;;;;1.85;1.00;;;28.10;47.20;;;;;;5069285;28;20035;-65
2022/06/19 01:17:02;;;;;;;2.20;1.05;;;28.10;47.20;;;;;;5068273;28;20028;-62
2022/06/19 01:19:31;;;;;;;1.90;1.08;;;28.10;47.20;;;;;;5067714;28;20035;-62
2022/06/19 01:22:09;;;;;;;2.67;1.13;;;28.10;47.20;;;;;;5065038;28;20040;-65
2022/06/19 01:24:58;;;;;;;1.17;0.80;;;28.10;47.20;;;;;;5069156;28;20104;-62
2022/06/19 07:04:25;;;;;;;2.38;1.38;;;26.40;49.50;;;;;;5057699;28;19927;-65
2022/06/19 07:06:51;;;;;;;3.13;1.35;;;26.40;49.00;;;;;;5060129;28;20032;-64
2022/06/19 07:09:17;;;;;;;4.38;1.50;;;26.50;48.90;;;;;;5059525;28;20351;-62
2022/06/19 07:11:48;;;;;;;2.05;1.40;;;26.50;48.90;;;;;;5057563;28;20087;-64
2022/06/19 07:14:15;;;;;;;2.10;1.38;;;26.60;48.80;;;;;;5059314;28;20103;-64
2022/06/19 07:16:41;;;;;;;3.28;1.48;;;26.60;48.70;;;;;;5065657;28;20024;-67
2022/06/19 07:19:07;;;;;;;2.75;1.52;;;26.60;48.60;;;;;;5066109;28;20029;-66
2022/06/19 07:21:34;;;;;;;3.53;1.60;;;26.70;48.50;;;;;;5068074;28;20068;-65
2022/06/19 07:24:00;;;;;;;3.75;1.75;;;26.70;48.40;;;;;;5060645;28;20032;-65
2022/06/19 07:26:26;;;;;;;3.58;1.73;;;26.70;48.30;;;;;;5064260;28;20039;-66
2022/06/19 07:28:53;;;;;;;2.88;1.80;;;26.80;48.30;;;;;;5064565;28;20396;-64
2022/06/19 07:31:18;;;;;;;3.40;1.75;;;26.90;48.20;;;;;;5066942;28;20036;-64
2022/06/19 07:33:44;;;;;;;3.53;1.60;;;26.90;48.10;;;;;;5062134;28;20055;-67
2022/06/19 07:36:17;;;;;;;2.97;1.70;;;27.00;48.10;;;;;;5065180;28;20392;-67
2022/06/19 07:38:43;;;;;;;4.00;2.13;;;27.00;47.90;;;;;;5066349;28;20120;-67
2022/06/19 07:41:08;;;;;;;3.22;1.67;;;27.00;47.80;;;;;;5066024;28;20448;-66
2022/06/19 07:43:35;;;;;;;2.67;1.60;;;27.10;47.80;;;;;;5068250;28;20711;-64
2022/06/19 07:46:00;;;;;;;3.47;1.90;;;27.10;47.70;;;;;;5066015;28;20391;-66
2022/06/19 07:51:11;;;;;;;2.80;1.88;;;27.20;47.60;;;;;;5068830;28;20137;-67
2022/06/19 07:53:36;;;;;;;2.65;1.60;;;27.20;47.50;;;;;;5063669;28;20126;-67
2022/06/19 07:56:02;;;;;;;3.20;1.80;;;27.30;47.50;;;;;;5067051;28;20074;-67
2022/06/19 07:58:28;;;;;;;3.35;1.70;;;27.30;47.50;;;;;;5056121;28;20593;-66
2022/06/19 08:00:54;;;;;;;3.15;1.92;;;27.30;47.50;;;;;;5065055;28;20040;-66
2022/06/19 08:03:19;;;;;;;3.70;1.77;;;27.30;47.40;;;;;;5067257;28;20033;-65
2022/06/19 08:05:46;;;;;;;2.38;1.67;;;27.30;47.30;;;;;;5067337;28;20036;-68
2022/06/19 08:08:25;;;;;;;3.45;1.88;;;27.40;47.40;;;;;;5066870;28;20031;-67
2022/06/19 08:10:53;;;;;;;3.95;1.90;;;27.40;47.30;;;;;;5067682;28;20028;-64
2022/06/19 08:13:20;;;;;;;3.22;1.75;;;27.40;47.20;;;;;;5065052;28;20063;-66
2022/06/19 08:15:51;;;;;;;3.30;1.60;;;27.40;47.20;;;;;;5068709;28;20107;-65
2022/06/19 08:18:18;;;;;;;2.75;1.58;;;27.50;47.20;;;;;;5066725;28;20491;-65
2022/06/19 08:20:45;;;;;;;2.58;1.40;;;27.50;47.10;;;;;;5073635;28;20032;-66
2022/06/19 08:23:11;;;;;;;2.78;1.50;;;27.50;47.20;;;;;;5072591;28;20052;-68
2022/06/19 08:25:37;;;;;;;2.47;1.40;;;27.50;47.10;;;;;;5039416;28;20074;-67
2022/06/19 08:28:03;;;;;;;3.22;1.48;;;27.50;47.10;;;;;;5061760;28;20028;-66
2022/06/19 08:30:34;;;;;;;3.25;1.77;;;27.50;47.10;;;;;;5069491;28;20032;-68
2022/06/19 08:33:00;;;;;;;3.47;1.40;;;27.50;47.10;;;;;;5073734;28;20044;-68
2022/06/19 08:35:29;;;;;;;2.92;1.45;;;27.50;47.10;;;;;;5071000;28;20039;-67
2022/06/19 08:38:00;;;;;;;2.67;1.50;;;27.50;47.10;;;;;;5070064;28;20027;-62
2022/06/19 08:40:28;;;;;;;2.70;1.52;;;27.50;47.10;;;;;;5068034;28;20032;-66
2022/06/19 08:43:12;;;;;;;2.97;1.70;;;27.50;47.10;;;;;;5066679;28;20098;-65
2022/06/19 08:45:43;;;;;;;2.50;1.30;;;27.50;47.00;;;;;;5064732;28;20024;-66
2022/06/19 08:49:01;;;;;;;3.60;1.58;;;27.50;47.00;;;;;;5071773;28;20429;-63
2022/06/19 08:51:45;;;;;;;2.53;1.50;;;27.50;47.00;;;;;;4951224;28;20031;-66
2022/06/19 08:54:20;;;;;;;2.53;1.40;;;27.50;47.00;;;;;;4948825;28;20229;-63
2022/06/19 08:56:51;;;;;;;2.05;1.33;;;27.50;47.00;;;;;;5029004;28;20044;-67
2022/06/19 08:59:49;;;;;;;3.17;1.60;;;27.50;47.10;;;;;;5063252;28;20093;-64
2022/06/19 09:02:51;;;;;;;3.17;1.40;;;27.50;47.10;;;;;;5064031;28;20072;-68
2022/06/19 09:05:36;;;;;;;3.40;1.40;;;27.50;47.10;;;;;;5073320;28;20054;-64
2022/06/19 09:08:15;;;;;;;2.90;1.45;;;27.50;47.10;;;;;;5067984;28;20024;-66
2022/06/19 09:11:09;;;;;;;2.38;1.30;;;27.50;47.10;;;;;;5071695;28;20027;-66
2022/06/19 09:13:56;;;;;;;2.58;1.50;;;27.50;47.10;;;;;;5067542;28;20024;-66
2022/06/19 09:16:28;;;;;;;2.65;1.50;;;27.50;47.10;;;;;;5073791;28;20042;-63
2022/06/19 09:19:13;;;;;;;2.90;1.75;;;27.50;47.20;;;;;;5070275;28;20101;-67
2022/06/19 09:21:45;;;;;;;2.58;1.42;;;27.50;47.10;;;;;;5070416;28;20537;-66
2022/06/19 09:24:49;;;;;;;3.28;1.80;;;27.50;47.10;;;;;;5070100;28;20124;-68
2022/06/19 09:27:16;;;;;;;2.15;1.40;;;27.50;47.10;;;;;;5070620;28;20049;-67
2022/06/19 09:30:02;;;;;;;3.38;1.40;;;27.50;47.20;;;;;;5070181;28;20426;-67
2022/06/19 09:32:53;;;;;;;2.80;1.40;;;27.50;47.20;;;;;;5071757;28;20099;-66
2022/06/19 09:35:25;;;;;;;2.72;1.50;;;27.50;47.20;;;;;;5072514;28;20039;-65
2022/06/19 09:37:50;;;;;;;3.35;1.92;;;27.40;47.20;;;;;;5068172;28;20028;-66
2022/06/19 09:40:26;;;;;;;2.17;1.50;;;27.40;47.20;;;;;;5067781;28;20050;-63
2022/06/19 09:43:10;;;;;;;2.40;1.40;;;27.40;47.20;;;;;;5071148;28;20036;-66
2022/06/19 09:46:06;;;;;;;3.05;1.45;;;27.40;47.20;;;;;;5072242;28;20031;-67
2022/06/19 09:48:59;;;;;;;2.22;1.20;;;27.40;47.20;;;;;;5062955;28;20032;-66
2022/06/19 09:51:38;;;;;;;1.90;1.10;;;27.40;47.30;;;;;;5071148;28;20051;-67
2022/06/19 09:54:34;;;;;;;2.53;1.30;;;27.40;47.30;;;;;;5069040;28;20039;-64
2022/06/19 09:57:11;;;;;;;2.03;1.20;;;27.40;47.30;;;;;;5072615;28;20404;-63
2022/06/19 09:59:57;;;;;;;2.15;1.30;;;27.40;47.30;;;;;;5070018;28;20404;-68
2022/06/19 10:03:01;;;;;;;2.70;1.33;;;27.40;47.30;;;;;;5063448;28;20393;-66
2022/06/19 10:05:44;;;;;;;2.42;1.30;;;27.40;47.30;;;;;;5035943;28;20092;-64
2022/06/19 10:08:43;;;;;;;2.47;1.40;;;27.40;47.30;;;;;;5064886;28;20124;-66
2022/06/19 10:11:13;;;;;;;2.22;1.33;;;27.30;47.30;;;;;;5065333;28;20035;-66
2022/06/19 10:13:48;;;;;;;2.63;1.30;;;27.30;47.30;;;;;;5065640;28;20032;-64
2022/06/19 10:16:44;;;;;;;2.05;1.30;;;27.30;47.40;;;;;;5067434;28;20180;-65
2022/06/19 10:19:19;;;;;;;2.08;1.27;;;27.30;47.40;;;;;;5067375;28;20024;-66
2022/06/19 10:22:13;;;;;;;2.08;1.23;;;27.30;47.40;;;;;;5066092;28;20281;-66
2022/06/19 10:24:42;;;;;;;1.90;1.40;;;27.30;47.40;;;;;;5063099;28;20035;-66
2022/06/19 10:27:11;;;;;;;2.30;1.30;;;27.30;47.50;;;;;;5066488;28;20066;-64
2022/06/19 10:30:09;;;;;;;3.10;1.35;;;27.30;47.50;;;;;;5068030;28;20028;-66
2022/06/19 10:33:16;;;;;;;1.92;1.20;;;27.30;47.50;;;;;;5063331;28;20068;-67
2022/06/19 10:35:59;;;;;;;1.70;1.17;;;27.30;47.50;;;;;;4942063;28;20042;-65
2022/06/19 10:38:37;;;;;;;1.83;1.20;;;27.30;47.50;;;;;;5053897;28;20117;-64
2022/06/19 10:42:00;;;;;;;1.95;1.30;;;27.30;47.60;;;;;;5066247;28;20104;-66
2022/06/19 10:44:37;;;;;;;1.83;1.10;;;27.30;47.60;;;;;;5067014;28;20168;-66
2022/06/19 10:47:36;;;;;;;3.03;1.17;;;27.30;47.70;;;;;;5067388;28;20089;-66
2022/06/19 10:50:13;;;;;;;3.05;1.20;;;27.30;47.60;;;;;;5066408;28;20024;-66
2022/06/19 10:52:57;;;;;;;1.83;1.20;;;27.30;47.60;;;;;;5065712;28;20135;-67
2022/06/19 10:55:48;;;;;;;1.92;1.10;;;27.30;47.60;;;;;;5065555;28;20063;-67
2022/06/19 10:58:18;;;;;;;1.85;1.10;;;27.30;47.60;;;;;;5067983;28;20028;-67
2022/06/19 11:00:45;;;;;;;1.35;1.00;;;27.30;47.60;;;;;;5047828;28;20526;-65
2022/06/19 11:06:37;;;;;;;1.80;1.05;;;27.30;47.70;;;;;;5071868;28;20055;-66
2022/06/19 11:09:08;;;;;;;2.70;1.27;;;27.30;47.80;;;;;;5068621;28;20106;-67
2022/06/19 11:11:37;;;;;;;1.50;1.08;;;27.30;47.80;;;;;;5051252;28;20031;-66
2022/06/19 11:14:12;;;;;;;1.63;1.10;;;27.30;47.80;;;;;;5069966;28;20841;-66
2022/06/19 11:17:00;;;;;;;1.50;1.10;;;27.30;47.80;;;;;;5071327;28;20412;-64
2022/06/19 11:19:35;;;;;;;1.67;1.30;;;27.30;47.90;;;;;;5071329;28;20056;-67
2022/06/19 11:22:04;;;;;;;2.10;1.30;;;27.20;47.80;;;;;;5069197;28;20040;-64
2022/06/19 11:24:32;;;;;;;2.67;1.53;;;27.30;47.90;;;;;;5069398;28;20404;-67
2022/06/19 11:26:59;;;;;;;2.20;1.30;;;27.30;47.90;;;;;;5072816;28;20844;-66
2022/06/19 11:29:26;;;;;;;2.55;1.33;;;27.30;47.90;;;;;;5068919;28;20039;-66
2022/06/19 11:32:11;;;;;;;1.73;1.10;;;27.30;47.90;;;;;;5069191;28;20055;-67
2022/06/19 11:34:45;;;;;;;1.60;1.10;;;27.20;47.90;;;;;;5067999;28;20031;-66
2022/06/19 11:37:25;;;;;;;2.08;1.10;;;27.30;47.90;;;;;;5066213;28;20107;-67
2022/06/19 11:39:57;;;;;;;2.05;1.20;;;27.30;47.90;;;;;;5066954;28;20031;-67
2022/06/19 11:42:38;;;;;;;2.00;1.17;;;27.30;48.00;;;;;;5065132;28;20032;-65
2022/06/19 11:45:12;;;;;;;1.80;1.20;;;27.30;48.00;;;;;;5065976;28;20028;-67
2022/06/19 11:47:58;;;;;;;2.22;1.33;;;27.30;47.90;;;;;;5071825;28;20043;-68
2022/06/19 11:50:33;;;;;;;1.90;1.15;;;27.30;47.90;;;;;;5071499;28;20059;-67
2022/06/19 11:53:06;;;;;;;1.67;1.15;;;27.30;47.90;;;;;;5064462;28;20128;-67
2022/06/19 11:55:35;;;;;;;2.00;1.38;;;27.30;47.90;;;;;;5066462;28;20081;-67
2022/06/19 11:58:26;;;;;;;2.30;1.35;;;27.30;47.90;;;;;;5068648;28;20169;-65
2022/06/19 12:01:17;;;;;;;1.90;1.30;;;27.30;47.90;;;;;;5065095;28;20127;-67
2022/06/19 12:03:57;;;;;;;2.83;1.38;;;27.30;47.90;;;;;;5039975;28;20110;-67
2022/06/19 12:06:40;;;;;;;3.40;1.30;;;27.30;48.00;;;;;;5067638;28;20047;-68
2022/06/19 12:09:26;;;;;;;2.00;1.20;;;27.30;48.00;;;;;;5063725;28;20044;-65
2022/06/19 12:12:05;;;;;;;1.83;1.17;;;27.30;48.00;;;;;;5067770;28;20047;-66
2022/06/19 12:14:33;;;;;;;;;;;27.30;48.00;;;;;;5064663;28;20032;-67
2022/06/19 12:17:46;;;;;;;2.00;1.20;;;27.30;48.00;;;;;;5069374;28;19917;-68
2022/06/19 12:20:12;;;;;;;2.47;1.40;;;27.30;48.00;;;;;;5041431;28;20045;-67
2022/06/19 12:22:53;;;;;;;1.73;1.10;;;27.30;48.00;;;;;;5070286;28;20090;-64
2022/06/19 12:25:22;;;;;;;1.67;1.15;;;27.30;48.00;;;;;;5067829;28;20038;-65
2022/06/19 12:27:53;;;;;;;2.33;1.20;;;27.30;48.00;;;;;;5068779;28;20127;-67
2022/06/19 12:30:27;;;;;;;2.45;1.48;;;27.30;47.90;;;;;;5064396;28;20522;-66
2022/06/19 12:32:55;;;;;;;2.10;1.40;;;27.30;48.00;;;;;;5070789;28;20028;-65
2022/06/19 12:35:33;;;;;;;1.55;1.10;;;27.40;48.00;;;;;;5068326;28;20344;-68
2022/06/19 12:37:59;;;;;;;2.05;1.30;;;27.30;48.00;;;;;;5068318;28;20088;-65
2022/06/19 12:40:31;;;;;;;1.88;1.25;;;27.30;48.00;;;;;;5065154;28;20032;-66
2022/06/19 12:43:08;;;;;;;2.10;1.25;;;27.30;48.00;;;;;;5065118;28;20776;-68
2022/06/19 12:46:04;;;;;;;1.90;1.20;;;27.30;48.00;;;;;;5069558;28;20024;-68
2022/06/19 12:49:06;;;;;;;2.78;1.33;;;27.30;47.90;;;;;;5043118;28;20040;-66
2022/06/19 12:51:41;;;;;;;1.73;1.20;;;27.40;48.00;;;;;;5067711;28;20051;-68
2022/06/19 12:54:19;;;;;;;1.92;1.38;;;27.40;48.10;;;;;;5068852;28;20066;-68
2022/06/19 12:57:04;;;;;;;2.08;1.40;;;27.40;48.00;;;;;;5069660;28;20040;-68
2022/06/19 12:59:58;;;;;;;2.05;1.30;;;27.40;48.00;;;;;;5065668;28;20039;-68
2022/06/19 13:03:13;;;;;;;2.30;1.52;;;27.40;48.00;;;;;;5065299;28;20066;-66
2022/06/19 13:06:05;;;;;;;1.42;1.08;;;27.40;47.90;;;;;;4941298;28;20109;-64
2022/06/19 13:08:44;;;;;;;2.03;1.20;;;27.40;47.90;;;;;;5063418;28;20127;-67
2022/06/19 13:11:25;;;;;;;1.20;1.10;;;27.40;47.90;;;;;;5047625;28;20077;-67
2022/06/19 13:14:25;;;;;;;1.45;1.10;;;27.40;47.80;;;;;;5072274;28;20031;-64
2022/06/19 13:17:17;;;;;;;1.85;1.13;;;27.40;47.80;;;;;;5070851;28;20109;-63
2022/06/19 13:19:56;;;;;;;2.00;1.30;;;27.40;47.80;;;;;;5073091;28;20024;-67
2022/06/19 13:22:59;;;;;;;2.05;1.20;;;27.40;47.80;;;;;;5068094;28;20031;-66
2022/06/19 13:25:51;;;;;;;2.38;1.20;;;27.40;47.80;;;;;;5071190;28;20027;-66
2022/06/19 13:28:34;;;;;;;1.75;1.15;;;27.40;47.80;;;;;;5061814;28;20110;-66
2022/06/19 13:31:38;;;;;;;1.77;1.20;;;27.40;47.90;;;;;;5070000;28;20453;-63
2022/06/19 13:34:39;;;;;;;1.92;1.10;;;27.40;47.90;;;;;;5062098;28;20341;-66
2022/06/19 13:37:11;;;;;;;2.08;1.10;;;27.40;47.90;;;;;;4949641;28;20036;-66
2022/06/19 13:39:58;;;;;;;1.85;1.30;;;27.50;48.00;;;;;;5045099;28;20065;-66
2022/06/19 13:42:49;;;;;;;1.25;1.08;;;27.50;48.00;;;;;;5064634;28;20028;-64
2022/06/19 13:45:27;;;;;;;2.50;1.10;;;27.50;48.00;;;;;;5064686;28;20559;-66
2022/06/19 13:48:05;;;;;;;1.42;1.20;;;27.50;48.00;;;;;;5066263;28;20050;-67
2022/06/19 13:50:37;;;;;;;1.30;1.03;;;27.50;48.00;;;;;;5068924;28;20522;-66
2022/06/19 13:53:12;;;;;;;1.58;1.00;;;27.50;48.00;;;;;;5067215;28;21046;-65
2022/06/19 13:56:14;;;;;;;1.63;1.17;;;27.50;48.00;;;;;;5065796;28;20035;-65
2022/06/19 13:59:05;;;;;;;2.75;1.20;;;27.50;48.00;;;;;;5064448;28;20551;-66
2022/06/19 14:01:33;;;;;;;2.10;1.15;;;27.50;48.00;;;;;;5066163;28;20066;-67
2022/06/19 14:06:52;;;;;;;1.77;1.25;;;27.50;48.00;;;;;;5067363;28;20043;-63
2022/06/19 14:09:34;;;;;;;1.50;1.08;;;27.50;48.00;;;;;;5063936;28;20028;-67
2022/06/19 14:12:04;;;;;;;1.80;1.15;;;27.50;48.00;;;;;;5065902;28;21269;-67
2022/06/19 14:14:42;;;;;;;1.95;1.20;;;27.50;48.00;;;;;;5061678;28;20046;-63
2022/06/19 14:17:30;;;;;;;2.67;1.10;;;27.50;48.10;;;;;;5067715;28;20089;-67
2022/06/19 14:20:07;;;;;;;2.25;1.30;;;27.50;48.10;;;;;;5066567;28;20028;-66
2022/06/19 14:22:41;;;;;;;1.80;1.30;;;27.50;48.10;;;;;;5067604;28;20452;-65
2022/06/19 14:25:39;;;;;;;1.33;1.10;;;27.50;48.00;;;;;;5064997;28;20024;-67
2022/06/19 14:28:35;;;;;;;1.92;1.20;;;27.60;48.10;;;;;;5066728;28;20024;-66
2022/06/19 14:31:01;;;;;;;1.83;1.20;;;27.60;48.20;;;;;;5065748;28;20396;-64
2022/06/19 14:33:45;;;;;;;1.42;1.10;;;27.50;48.10;;;;;;5067406;28;20032;-66
2022/06/19 14:36:19;;;;;;;1.50;1.10;;;27.50;48.10;;;;;;5066759;28;20023;-65
2022/06/19 14:38:47;;;;;;;1.63;1.10;;;27.60;48.20;;;;;;5067689;28;20109;-67
2022/06/19 14:41:36;;;;;;;1.75;1.10;;;27.60;48.10;;;;;;5066448;28;20037;-67
2022/06/19 14:44:21;;;;;;;2.65;1.20;;;27.60;48.20;;;;;;5066888;28;20583;-66
2022/06/19 14:47:17;;;;;;;1.90;1.25;;;27.60;48.20;;;;;;5065865;28;20084;-64
2022/06/19 14:50:01;;;;;;;1.83;1.20;;;27.60;48.20;;;;;;5066981;28;20043;-66
2022/06/19 14:53:00;;;;;;;1.52;1.00;;;27.60;48.20;;;;;;5062659;28;20096;-67
2022/06/19 14:55:32;;;;;;;1.85;1.13;;;27.60;48.20;;;;;;5059970;28;20640;-67
2022/06/19 14:58:02;;;;;;;1.83;1.30;;;27.70;48.20;;;;;;5065018;28;20052;-67
2022/06/19 15:00:37;;;;;;;1.45;1.08;;;27.60;48.20;;;;;;5067677;28;20616;-65
2022/06/19 15:03:21;;;;;;;2.10;1.20;;;27.60;48.20;;;;;;5064072;28;20040;-67
2022/06/19 15:05:54;;;;;;;1.67;1.20;;;27.60;48.20;;;;;;5063074;28;20494;-67
2022/06/19 15:08:34;;;;;;;1.85;1.20;;;27.70;48.30;;;;;;5060336;28;20038;-67
2022/06/19 15:11:04;;;;;;;1.88;1.27;;;27.70;48.30;;;;;;5064691;28;20532;-64
2022/06/19 15:13:32;;;;;;;1.85;1.20;;;27.60;48.20;;;;;;5063608;28;20666;-66
2022/06/19 15:16:13;;;;;;;1.65;1.20;;;27.70;48.30;;;;;;5066187;28;20032;-67
2022/06/19 15:18:48;;;;;;;1.92;1.20;;;27.70;48.30;;;;;;5063472;28;20036;-67
2022/06/19 15:21:27;;;;;;;2.45;1.30;;;27.70;48.30;;;;;;5048584;28;20033;-67
2022/06/19 15:23:54;;;;;;;1.80;1.30;;;27.70;48.20;;;;;;5064421;28;20025;-67
2022/06/19 15:26:23;;;;;;;1.98;1.20;;;27.70;48.20;;;;;;5048842;28;20037;-66
2022/06/19 15:28:48;;;;;;;2.28;1.20;;;27.70;48.30;;;;;;5065441;28;20120;-67
2022/06/19 15:31:23;;;;;;;1.60;1.20;;;27.70;48.20;;;;;;5061900;28;20135;-67
2022/06/19 15:33:56;;;;;;;2.25;1.23;;;27.70;48.20;;;;;;5064520;28;20100;-63
2022/06/19 15:36:36;;;;;;;2.47;1.30;;;27.70;48.20;;;;;;5064715;28;20036;-66
2022/06/19 15:39:08;;;;;;;2.10;1.30;;;27.80;48.30;;;;;;5062398;28;20060;-63
2022/06/19 15:41:44;;;;;;;1.88;1.40;;;27.70;48.30;;;;;;5062215;28;20145;-68
2022/06/19 15:44:19;;;;;;;1.58;1.20;;;27.80;48.30;;;;;;5066828;28;20479;-67
2022/06/19 15:47:06;;;;;;;1.98;1.20;;;27.70;48.20;;;;;;5049835;28;20326;-65
2022/06/19 15:49:44;;;;;;;1.70;1.23;;;27.80;48.30;;;;;;5067172;28;20020;-67
2022/06/19 15:52:18;;;;;;;2.40;1.30;;;27.80;48.30;;;;;;5068848;28;20032;-67
2022/06/19 15:54:47;;;;;;;2.30;1.20;;;27.80;48.30;;;;;;5065255;28;20072;-66
2022/06/19 15:57:25;;;;;;;1.70;1.20;;;27.80;48.30;;;;;;5068921;28;20588;-66
2022/06/19 16:00:30;;;;;;;1.45;1.20;;;27.80;48.30;;;;;;5065005;28;20028;-67
2022/06/19 16:02:59;;;;;;;2.10;1.40;;;27.80;48.40;;;;;;5039792;28;20100;-66
2022/06/19 16:05:31;;;;;;;1.83;1.20;;;27.80;49.10;;;;;;5061680;28;20028;-70
2022/06/19 16:07:59;;;;;;;2.10;1.40;;;27.90;49.30;;;;;;5059259;28;20112;-66
2022/06/19 16:10:29;;;;;;;2.63;1.40;;;27.90;49.10;;;;;;5058025;28;20920;-68
2022/06/19 16:13:13;;;;;;;2.13;1.52;;;27.90;49.10;;;;;;5061371;28;20131;-65
2022/06/19 16:15:41;;;;;;;2.67;1.50;;;27.90;49.10;;;;;;5064223;28;20059;-67
2022/06/19 16:18:25;;;;;;;2.50;1.50;;;27.90;49.10;;;;;;5067121;28;20032;-66
2022/06/19 16:21:12;;;;;;;2.72;1.48;;;28.00;49.40;;;;;;5063860;28;20039;-66
2022/06/19 16:23:40;;;;;;;3.88;1.55;;;28.00;49.80;;;;;;5063023;28;20028;-67
2022/06/19 16:26:06;;;;;;;2.03;1.40;;;28.00;49.10;;;;;;5047885;28;20028;-63
2022/06/19 16:28:35;;;;;;;3.22;1.58;;;28.00;49.10;;;;;;5068703;28;20031;-63
2022/06/19 16:31:08;;;;;;;2.50;1.60;;;28.00;49.10;;;;;;5066289;28;20043;-63
2022/06/19 16:33:48;;;;;;;3.47;1.65;;;28.10;49.20;;;;;;5063316;28;20677;-67
2022/06/19 16:44:45;;;;;;;3.17;1.70;;;28.10;49.40;;;;;;5067995;28;20197;-65
2022/06/19 16:47:26;;;;;;;3.13;1.67;;;28.10;49.30;;;;;;5060866;28;20029;-67
2022/06/19 16:50:05;;;;;;;3.65;1.80;;;28.10;49.40;;;;;;5061575;28;20020;-66
2022/06/19 16:52:32;;;;;;;3.13;1.75;;;28.10;49.40;;;;;;5062049;28;20150;-67
2022/06/19 16:55:05;;;;;;;3.95;2.17;;;28.10;49.50;;;;;;5064487;28;20553;-65
2022/06/19 16:57:36;;;;;;;3.85;1.80;;;28.10;49.50;;;;;;5062644;28;20040;-67
2022/06/19 17:00:19;;;;;;;3.67;1.80;;;28.10;49.40;;;;;;5066469;28;20085;-66
2022/06/19 17:03:13;;;;;;;3.28;1.90;;;28.20;49.60;;;;;;5062761;28;20044;-66
2022/06/19 17:05:50;;;;;;;3.78;1.92;;;28.20;49.60;;;;;;5064622;28;20118;-66
2022/06/19 17:11:28;;;;;;;3.13;1.85;;;28.20;49.60;;;;;;5065701;28;20043;-64
2022/06/19 17:14:02;;;;;;;3.15;1.95;;;28.20;49.60;;;;;;5043832;28;20118;-63
2022/06/19 17:16:29;;;;;;;5.15;1.90;;;28.20;49.60;;;;;;5067624;28;20129;-65
2022/06/19 17:18:55;;;;;;;3.03;1.90;;;28.20;49.60;;;;;;5065519;28;20032;-66
2022/06/19 17:21:41;;;;;;;4.20;2.15;;;28.20;49.60;;;;;;5062781;28;20544;-67
2022/06/19 17:24:11;;;;;;;3.60;1.95;;;28.20;49.60;;;;;;5066864;28;20059;-63
2022/06/19 17:26:37;;;;;;;3.97;1.95;;;28.20;49.60;;;;;;5066322;28;20031;-67
2022/06/19 17:29:04;;;;;;;4.03;1.98;;;28.20;49.60;;;;;;5045582;28;20152;-67
2022/06/19 17:31:33;;;;;;;3.50;2.20;;;28.20;49.60;;;;;;5061363;28;20036;-66
2022/06/19 17:34:01;;;;;;;2.83;1.88;;;28.30;49.70;;;;;;5067440;28;20028;-67
2022/06/19 17:36:53;;;;;;;3.78;1.85;;;28.30;49.60;;;;;;5062004;28;20036;-63
2022/06/19 17:39:39;;;;;;;4.57;2.03;;;28.30;49.60;;;;;;5060285;28;20459;-67
2022/06/19 17:42:14;;;;;;;4.80;2.08;;;28.30;49.60;;;;;;5059315;28;20871;-62
2022/06/19 17:44:43;;;;;;;3.13;1.77;;;28.30;49.60;;;;;;5066873;28;20032;-66
2022/06/19 17:47:16;;;;;;;3.05;2.03;;;28.30;49.50;;;;;;5067896;28;20100;-66
2022/06/19 17:49:51;;;;;;;3.75;2.00;;;28.30;49.60;;;;;;5067107;28;20016;-66
2022/06/19 17:52:31;;;;;;;2.90;1.90;;;28.30;49.50;;;;;;5065059;28;20431;-67
2022/06/19 17:55:21;;;;;;;2.75;1.80;;;28.30;49.50;;;;;;5062165;28;20036;-67
2022/06/19 17:58:05;;;;;;;3.35;2.00;;;28.30;49.40;;;;;;5066152;28;20093;-67
2022/06/19 18:00:31;;;;;;;3.35;1.95;;;28.30;49.50;;;;;;5063992;28;20056;-66
2022/06/19 18:03:04;;;;;;;3.00;1.77;;;28.30;49.60;;;;;;5063854;28;20509;-66
2022/06/19 18:05:43;;;;;;;2.90;2.10;;;28.30;49.70;;;;;;5063737;28;20384;-67
2022/06/19 18:08:27;;;;;;;4.70;2.30;;;28.40;49.90;;;;;;5064556;28;20211;-66
2022/06/19 18:11:03;;;;;;;3.53;1.85;;;28.40;49.80;;;;;;5063230;28;20063;-67
2022/06/19 18:13:36;;;;;;;3.83;2.10;;;28.40;49.80;;;;;;5065168;28;20044;-62
2022/06/19 18:18:50;;;;;;;3.83;2.08;;;28.40;49.70;;;;;;5067239;28;20124;-66
2022/06/19 18:21:23;;;;;;;3.10;1.73;;;28.40;49.80;;;;;;5046059;28;20059;-66
2022/06/19 18:23:51;;;;;;;3.88;1.70;;;28.40;50.20;;;;;;5058152;28;20538;-67
2022/06/19 18:26:22;;;;;;;3.55;1.90;;;28.40;49.70;;;;;;5056643;28;20448;-66
2022/06/19 18:28:48;;;;;;;2.92;1.90;;;28.40;49.70;;;;;;5044447;28;20118;-65
2022/06/19 18:31:14;;;;;;;3.80;1.90;;;28.40;49.80;;;;;;5060744;28;20040;-67
2022/06/19 18:33:40;;;;;;;4.13;2.08;;;28.40;49.80;;;;;;5062044;28;20055;-67
2022/06/19 18:36:12;;;;;;;3.08;1.92;;;28.50;50.00;;;;;;5062134;28;20031;-65
2022/06/19 18:38:38;;;;;;;3.30;1.83;;;28.50;50.00;;;;;;5060214;28;21098;-65
2022/06/19 18:41:03;;;;;;;3.65;2.00;;;28.40;49.90;;;;;;5055474;28;20024;-64
2022/06/19 18:43:30;;;;;;;3.67;2.00;;;28.40;49.90;;;;;;5062917;28;20032;-64
2022/06/19 18:45:55;;;;;;;3.28;2.00;;;28.40;49.90;;;;;;5062792;28;20033;-65
2022/06/19 18:48:22;;;;;;;2.47;1.77;;;28.40;49.80;;;;;;5053760;28;20032;-66
2022/06/19 18:50:50;;;;;;;3.20;1.80;;;28.40;49.80;;;;;;5061898;28;20058;-62
2022/06/19 18:53:22;;;;;;;3.47;1.98;;;28.50;49.90;;;;;;5062042;28;20032;-68
2022/06/19 18:55:48;;;;;;;3.42;1.90;;;28.50;49.90;;;;;;5062575;28;20040;-66
2022/06/19 18:58:24;;;;;;;3.35;2.00;;;28.40;49.80;;;;;;5060282;28;20105;-66
2022/06/19 19:00:51;;;;;;;3.40;1.90;;;28.50;49.90;;;;;;5062269;28;20765;-66
2022/06/19 19:03:17;;;;;;;3.13;1.70;;;28.50;49.80;;;;;;5039492;28;20028;-63
2022/06/19 19:05:46;;;;;;;3.15;1.80;;;28.50;49.80;;;;;;5056247;28;20345;-66
2022/06/19 19:08:33;;;;;;;3.03;1.90;;;28.50;49.80;;;;;;5043180;28;20464;-63
2022/06/19 19:11:00;;;;;;;3.17;1.90;;;28.50;50.40;;;;;;5060937;28;20036;-65
2022/06/19 19:13:36;;;;;;;2.78;1.70;;;28.50;49.80;;;;;;5058365;28;20035;-66
2022/06/19 19:16:14;;;;;;;3.33;1.95;;;28.50;49.90;;;;;;5062175;28;20048;-66
2022/06/19 19:18:39;;;;;;;3.15;2.05;;;28.50;49.80;;;;;;5066498;28;20554;-66
2022/06/19 19:21:07;;;;;;;2.60;1.52;;;28.50;49.80;;;;;;5062216;28;20047;-65
2022/06/19 19:23:32;;;;;;;3.10;1.80;;;28.50;49.90;;;;;;5065975;28;20036;-65
2022/06/19 19:25:58;;;;;;;2.72;1.80;;;28.50;49.90;;;;;;5063488;28;20097;-65
2022/06/19 19:28:41;;;;;;;3.45;2.10;;;28.50;49.90;;;;;;5067257;28;20114;-62
2022/06/19 19:31:12;;;;;;;3.08;1.77;;;28.50;50.00;;;;;;5067954;28;20044;-65
2022/06/19 19:33:39;;;;;;;3.78;1.90;;;28.50;50.10;;;;;;5068890;28;20076;-67